Time;durP1;ratioP1;P1;durP2;ratioP2;P2;SDS_P1;SDS_P2;PMS_P1;PMS_P2;Temp;Humidity;BMP_temperature;BMP_pressure;BME280_temperature;BME280_humidity;BME280_pressure;Samples;Min_cycle;Max_cycle;Signal;HPM_P1;HPM_P2
2024/02/10 00:01:12;;;;;;;11.17;9.13;;;17.40;65.80;;;;;;5043640;28;20956;-62
2024/02/10 00:03:39;;;;;;;10.40;9.30;;;17.50;65.30;;;;;;5040983;28;20431;-65
2024/02/10 00:06:06;;;;;;;8.40;7.50;;;17.50;65.00;;;;;;5048503;28;20451;-70
2024/02/10 00:08:31;;;;;;;9.80;8.90;;;17.60;64.90;;;;;;5042447;28;20424;-65
2024/02/10 00:10:57;;;;;;;10.83;7.97;;;17.60;64.80;;;;;;5044516;28;20486;-64
2024/02/10 00:13:23;;;;;;;10.10;7.17;;;17.60;65.60;;;;;;5048063;28;20250;-65
2024/02/10 00:15:50;;;;;;;8.90;7.03;;;17.60;64.50;;;;;;5042767;28;20676;-66
2024/02/10 00:18:18;;;;;;;8.03;6.97;;;17.70;64.30;;;;;;5037470;28;20486;-65
2024/02/10 00:20:44;;;;;;;8.53;7.60;;;17.60;64.00;;;;;;5047125;28;20948;-64
2024/02/10 00:23:09;;;;;;;9.53;8.00;;;17.60;63.90;;;;;;5046823;28;20505;-64
2024/02/10 00:25:36;;;;;;;8.33;7.53;;;17.60;63.80;;;;;;5045967;28;20197;-66
2024/02/10 00:28:02;;;;;;;9.63;7.90;;;17.60;63.90;;;;;;5039081;28;20195;-66
2024/02/10 00:30:29;;;;;;;9.70;8.53;;;17.60;64.10;;;;;;5045891;28;20498;-64
2024/02/10 00:32:55;;;;;;;12.00;8.90;;;17.50;64.20;;;;;;5042860;28;20959;-64
2024/02/10 00:35:22;;;;;;;9.50;7.63;;;17.50;64.50;;;;;;5045943;28;20442;-64
2024/02/10 00:37:49;;;;;;;9.50;8.10;;;17.40;64.50;;;;;;5040728;28;20463;-66
2024/02/10 00:40:14;;;;;;;9.40;8.07;;;17.60;64.80;;;;;;5046381;28;20961;-64
2024/02/10 00:42:40;;;;;;;9.10;7.20;;;17.50;64.40;;;;;;5037919;28;20566;-65
2024/02/10 00:45:07;;;;;;;9.97;8.97;;;17.60;64.30;;;;;;5045400;28;20192;-66
2024/02/10 00:47:35;;;;;;;10.33;7.73;;;17.60;63.90;;;;;;5038719;28;20563;-64
2024/02/10 00:50:01;;;;;;;12.23;8.10;;;17.70;63.60;;;;;;5037579;28;20462;-64
2024/02/10 00:52:27;;;;;;;11.10;8.40;;;17.70;63.50;;;;;;5040564;28;20446;-64
2024/02/10 00:54:53;;;;;;;9.37;7.73;;;17.80;63.50;;;;;;5039439;28;20458;-63
2024/02/10 00:57:19;;;;;;;11.43;8.30;;;17.80;63.20;;;;;;5037411;28;20467;-66
2024/02/10 00:59:45;;;;;;;10.47;9.13;;;17.80;63.10;;;;;;5038649;28;20224;-64
2024/02/10 01:02:17;;;;;;;13.13;8.80;;;17.80;62.90;;;;;;5038396;28;20660;-64
2024/02/10 01:04:44;;;;;;;13.77;8.30;;;17.80;63.00;;;;;;5041787;28;20435;-66
2024/02/10 01:07:09;;;;;;;14.07;10.50;;;17.90;63.10;;;;;;5036169;28;20458;-65
2024/02/10 01:09:38;;;;;;;14.90;10.20;;;17.90;63.20;;;;;;5037436;28;20958;-64
2024/02/10 01:12:05;;;;;;;12.17;9.27;;;17.90;63.00;;;;;;5037679;28;20236;-68
2024/02/10 01:14:32;;;;;;;12.40;10.40;;;17.80;62.50;;;;;;5040929;28;20420;-64
2024/02/10 01:16:57;;;;;;;18.07;10.40;;;17.80;62.80;;;;;;5036498;28;20782;-64
2024/02/10 01:19:25;;;;;;;14.83;10.67;;;17.80;63.00;;;;;;5039738;28;20860;-66
2024/02/10 01:21:57;;;;;;;14.80;11.10;;;17.80;62.90;;;;;;5040392;28;20201;-64
2024/02/10 01:24:27;;;;;;;16.80;11.40;;;17.90;62.70;;;;;;5046508;28;20810;-64
2024/02/10 01:26:53;;;;;;;16.73;11.43;;;17.90;62.80;;;;;;5039798;28;20494;-63
2024/02/10 01:29:19;;;;;;;28.67;12.60;;;17.90;62.70;;;;;;5048774;28;20810;-66
2024/02/10 01:31:46;;;;;;;26.57;11.60;;;17.90;62.40;;;;;;5041826;28;20471;-64
2024/02/10 01:34:12;;;;;;;14.77;11.37;;;17.90;62.30;;;;;;5037183;28;20193;-64
2024/02/10 01:36:38;;;;;;;16.50;12.30;;;17.80;62.50;;;;;;5036741;28;21080;-64
2024/02/10 01:39:03;;;;;;;11.83;10.40;;;17.80;62.80;;;;;;5039592;28;20959;-64
2024/02/10 01:41:29;;;;;;;12.13;9.43;;;17.70;62.90;;;;;;5039087;28;20552;-66
2024/02/10 01:43:55;;;;;;;9.50;8.30;;;17.70;63.00;;;;;;5038908;28;20189;-64
2024/02/10 01:46:22;;;;;;;15.30;10.20;;;17.60;62.90;;;;;;5034792;28;20636;-64
2024/02/10 01:48:49;;;;;;;18.17;11.20;;;17.60;63.10;;;;;;5037827;28;20443;-62
2024/02/10 01:51:18;;;;;;;17.13;10.60;;;17.60;63.20;;;;;;5040947;28;20467;-63
2024/02/10 01:53:45;;;;;;;22.73;12.37;;;17.60;63.20;;;;;;5034481;28;20436;-63
2024/02/10 01:56:15;;;;;;;19.03;12.77;;;17.60;63.30;;;;;;5037142;28;20826;-65
2024/02/10 01:58:44;;;;;;;19.63;13.50;;;17.60;63.50;;;;;;5034881;28;20451;-62
2024/02/10 02:01:11;;;;;;;17.00;10.90;;;17.60;63.70;;;;;;5035224;28;21004;-64
2024/02/10 02:03:42;;;;;;;16.50;13.17;;;17.60;63.80;;;;;;5039131;28;20609;-63
2024/02/10 02:06:10;;;;;;;28.60;11.53;;;17.60;63.90;;;;;;5041907;28;20962;-62
2024/02/10 02:08:42;;;;;;;55.97;12.63;;;17.60;63.90;;;;;;5031184;28;20497;-64
2024/02/10 02:11:07;;;;;;;11.83;10.00;;;17.60;63.90;;;;;;5042156;28;20489;-63
2024/02/10 02:13:35;;;;;;;11.00;9.90;;;17.60;63.70;;;;;;5031489;28;20971;-65
2024/02/10 02:16:01;;;;;;;13.00;10.33;;;17.50;63.60;;;;;;5041410;28;20213;-62
2024/02/10 02:18:27;;;;;;;11.10;9.50;;;17.50;63.50;;;;;;5037695;28;20451;-62
2024/02/10 02:20:52;;;;;;;10.30;8.93;;;17.50;63.70;;;;;;5036048;28;21043;-62
2024/02/10 02:23:18;;;;;;;24.30;11.50;;;17.50;63.70;;;;;;5041028;28;20185;-62
2024/02/10 02:25:50;;;;;;;31.50;11.83;;;17.30;63.40;;;;;;5039880;28;20184;-64
2024/02/10 02:28:21;;;;;;;25.30;10.60;;;16.90;64.20;;;;;;5037392;28;20199;-64
2024/02/10 02:30:47;;;;;;;19.10;11.10;;;16.30;67.00;;;;;;5045745;28;20467;-65
2024/02/10 02:33:13;;;;;;;18.70;10.97;;;16.00;68.50;;;;;;5044416;28;20493;-64
2024/02/10 02:35:40;;;;;;;13.90;11.13;;;16.00;69.40;;;;;;5034142;28;20634;-64
2024/02/10 02:38:06;;;;;;;12.73;10.67;;;15.80;69.50;;;;;;5036952;28;20177;-65
2024/02/10 02:40:31;;;;;;;12.23;10.83;;;15.70;70.30;;;;;;5040830;28;20816;-64
2024/02/10 02:43:02;;;;;;;13.67;11.40;;;15.20;72.00;;;;;;5038142;28;20435;-66
2024/02/10 02:45:29;;;;;;;24.70;13.00;;;15.10;73.10;;;;;;5041088;28;20275;-63
2024/02/10 02:48:01;;;;;;;18.30;12.43;;;15.10;73.10;;;;;;5040756;28;20546;-65
2024/02/10 02:50:31;;;;;;;30.77;13.03;;;15.10;73.40;;;;;;5040277;28;21045;-65
2024/02/10 02:53:02;;;;;;;18.80;12.87;;;15.10;73.50;;;;;;5040597;28;20443;-61
2024/02/10 02:55:28;;;;;;;19.33;12.40;;;15.20;73.30;;;;;;5035455;28;20609;-67
2024/02/10 02:57:55;;;;;;;19.47;13.10;;;15.10;73.90;;;;;;5035289;28;20439;-66
2024/02/10 03:00:21;;;;;;;17.33;13.20;;;15.10;74.60;;;;;;5036206;28;20446;-63
2024/02/10 03:02:48;;;;;;;14.93;12.37;;;15.10;74.10;;;;;;5043170;28;20455;-62
2024/02/10 03:05:14;;;;;;;16.80;14.07;;;15.10;73.90;;;;;;5040818;28;20496;-64
2024/02/10 03:07:44;;;;;;;15.43;13.63;;;14.90;74.50;;;;;;5034352;28;20451;-64
2024/02/10 03:10:10;;;;;;;14.87;12.23;;;14.80;75.10;;;;;;5043795;28;20235;-64
2024/02/10 03:12:36;;;;;;;21.37;13.47;;;14.70;75.80;;;;;;5037458;28;20789;-64
2024/02/10 03:15:04;;;;;;;20.03;12.27;;;14.40;76.20;;;;;;5035493;28;20811;-65
2024/02/10 03:17:30;;;;;;;15.73;12.80;;;14.20;78.80;;;;;;5037087;28;20204;-64
2024/02/10 03:19:56;;;;;;;18.23;12.13;;;14.10;79.20;;;;;;5035685;28;20446;-65
2024/02/10 03:22:23;;;;;;;13.13;11.70;;;14.10;79.40;;;;;;5043589;28;20185;-65
2024/02/10 03:24:49;;;;;;;12.67;10.83;;;14.10;78.70;;;;;;5043729;28;20806;-64
2024/02/10 03:27:15;;;;;;;15.33;10.47;;;14.10;79.60;;;;;;5037668;28;20818;-62
2024/02/10 03:29:41;;;;;;;13.20;11.53;;;14.10;79.00;;;;;;5039656;28;20441;-63
2024/02/10 03:32:06;;;;;;;12.73;10.80;;;13.80;80.30;;;;;;5038747;28;20455;-66
2024/02/10 03:34:32;;;;;;;20.23;11.57;;;13.60;81.80;;;;;;5039728;28;20960;-65
2024/02/10 03:37:00;;;;;;;12.67;11.27;;;13.40;82.60;;;;;;5036245;28;20311;-65
2024/02/10 03:39:26;;;;;;;23.67;11.77;;;13.50;82.90;;;;;;5038456;28;20181;-65
2024/02/10 03:41:52;;;;;;;20.83;12.70;;;13.30;84.40;;;;;;5037324;28;20434;-65
2024/02/10 03:44:22;;;;;;;22.00;12.03;;;13.30;84.30;;;;;;5038504;28;20435;-63
2024/02/10 03:46:52;;;;;;;17.83;11.60;;;13.20;84.40;;;;;;5039963;28;20209;-61
2024/02/10 03:49:17;;;;;;;17.77;12.10;;;13.00;85.90;;;;;;5040987;28;20488;-64
2024/02/10 03:51:43;;;;;;;16.00;12.67;;;13.10;85.30;;;;;;5035712;28;20474;-63
2024/02/10 03:54:09;;;;;;;14.30;11.10;;;13.20;85.60;;;;;;5036886;28;20192;-64
2024/02/10 03:56:37;;;;;;;13.80;11.10;;;13.40;83.70;;;;;;5037585;28;20200;-65
2024/02/10 03:59:03;;;;;;;15.63;11.10;;;13.30;83.20;;;;;;5038356;28;20216;-65
2024/02/10 04:01:29;;;;;;;15.07;12.40;;;13.10;84.60;;;;;;5037689;28;20451;-65
2024/02/10 04:04:00;;;;;;;12.57;10.60;;;12.70;87.20;;;;;;5043917;28;20446;-65
2024/02/10 04:06:26;;;;;;;15.03;11.73;;;12.70;87.60;;;;;;5043972;28;20649;-64
2024/02/10 04:08:52;;;;;;;15.10;12.93;;;12.90;86.60;;;;;;5041008;28;21351;-63
2024/02/10 04:11:18;;;;;;;14.40;11.47;;;12.80;86.50;;;;;;5043939;28;20838;-65
2024/02/10 04:13:44;;;;;;;21.87;12.43;;;12.70;87.30;;;;;;5042511;28;20447;-64
2024/02/10 04:16:11;;;;;;;16.17;12.17;;;12.60;88.20;;;;;;5042141;28;20205;-64
2024/02/10 04:18:37;;;;;;;15.43;12.57;;;12.80;88.00;;;;;;5042917;28;20462;-64
2024/02/10 04:21:04;;;;;;;17.00;12.93;;;12.50;88.80;;;;;;5042816;28;20777;-64
2024/02/10 04:23:32;;;;;;;16.90;13.27;;;12.40;90.60;;;;;;5042359;28;20493;-63
2024/02/10 04:25:58;;;;;;;19.50;12.70;;;12.60;90.10;;;;;;5040865;28;20463;-61
2024/02/10 04:28:24;;;;;;;18.87;13.57;;;12.70;89.10;;;;;;5045443;28;20431;-66
2024/02/10 04:30:53;;;;;;;19.67;14.17;;;12.70;89.70;;;;;;5043227;28;20514;-66
2024/02/10 04:33:22;;;;;;;18.03;13.60;;;12.60;89.50;;;;;;5045749;28;21013;-63
2024/02/10 04:35:48;;;;;;;16.30;12.23;;;12.70;90.20;;;;;;5042886;28;20545;-63
2024/02/10 04:38:13;;;;;;;15.30;12.17;;;12.80;88.60;;;;;;5043669;28;20995;-64
2024/02/10 04:40:39;;;;;;;21.90;13.80;;;12.80;88.70;;;;;;5045764;28;20451;-65
2024/02/10 04:43:05;;;;;;;15.37;13.23;;;13.00;87.20;;;;;;5045946;28;20185;-68
2024/02/10 04:45:33;;;;;;;18.50;13.63;;;13.30;85.50;;;;;;5041679;28;20183;-65
2024/02/10 04:48:00;;;;;;;17.57;13.83;;;13.40;83.90;;;;;;5042627;28;20212;-64
2024/02/10 04:50:28;;;;;;;15.60;12.47;;;13.40;83.30;;;;;;5039822;28;20487;-64
2024/02/10 04:52:57;;;;;;;16.37;12.77;;;13.50;82.30;;;;;;5042518;28;20447;-66
2024/02/10 04:55:23;;;;;;;13.27;11.83;;;13.40;82.20;;;;;;5047352;28;20442;-63
2024/02/10 04:57:50;;;;;;;15.60;11.77;;;13.20;82.70;;;;;;5038824;28;20985;-65
2024/02/10 05:00:16;;;;;;;19.03;12.83;;;13.10;84.40;;;;;;5045249;28;20502;-64
2024/02/10 05:02:51;;;;;;;16.77;12.27;;;13.20;84.10;;;;;;5045519;28;20436;-64
2024/02/10 05:05:18;;;;;;;15.17;11.70;;;13.30;83.30;;;;;;5042650;28;20809;-63
2024/02/10 05:07:46;;;;;;;14.83;12.70;;;13.60;82.30;;;;;;5049744;28;20958;-65
2024/02/10 05:10:16;;;;;;;18.10;12.57;;;13.70;80.70;;;;;;5043256;28;20486;-64
2024/02/10 05:12:46;;;;;;;17.03;11.60;;;13.80;79.70;;;;;;5040445;28;20466;-65
2024/02/10 05:15:18;;;;;;;17.00;12.90;;;13.80;79.50;;;;;;5036174;28;20426;-66
2024/02/10 05:17:48;;;;;;;14.93;11.53;;;13.70;79.50;;;;;;5040065;28;20460;-64
2024/02/10 05:20:19;;;;;;;19.83;13.50;;;13.60;80.10;;;;;;5040180;28;20497;-63
2024/02/10 05:22:52;;;;;;;16.60;12.63;;;13.70;79.80;;;;;;5042467;28;20439;-64
2024/02/10 05:25:19;;;;;;;17.67;13.73;;;13.80;79.30;;;;;;5035971;28;20424;-65
2024/02/10 05:27:46;;;;;;;15.23;12.43;;;13.80;79.20;;;;;;5043869;28;20454;-64
2024/02/10 05:30:25;;;;;;;14.90;12.80;;;13.80;79.00;;;;;;5045600;28;20518;-66
2024/02/10 05:32:52;;;;;;;17.83;12.83;;;13.90;79.00;;;;;;5042358;28;20817;-62
2024/02/10 05:35:19;;;;;;;15.77;13.43;;;13.80;78.70;;;;;;5042012;28;20423;-65
2024/02/10 05:37:45;;;;;;;16.93;12.83;;;13.90;78.50;;;;;;5038751;28;20506;-64
2024/02/10 05:40:12;;;;;;;19.50;13.30;;;14.00;78.00;;;;;;5041305;28;20455;-64
2024/02/10 05:42:37;;;;;;;15.17;12.17;;;14.10;77.30;;;;;;5040024;28;20458;-64
2024/02/10 05:45:06;;;;;;;19.80;13.30;;;14.10;77.50;;;;;;5039972;28;20771;-66
2024/02/10 05:47:34;;;;;;;14.93;12.97;;;14.20;77.10;;;;;;5045350;28;20185;-65
2024/02/10 05:50:12;;;;;;;15.00;12.80;;;14.20;76.70;;;;;;5043122;28;20443;-62
2024/02/10 05:52:44;;;;;;;18.40;13.53;;;14.30;76.30;;;;;;5037849;28;20452;-65
2024/02/10 05:55:21;;;;;;;17.30;12.93;;;14.40;75.90;;;;;;5038471;28;20442;-65
2024/02/10 05:57:49;;;;;;;15.27;13.20;;;14.50;75.40;;;;;;5037895;28;20601;-65
2024/02/10 06:00:16;;;;;;;17.30;14.00;;;14.50;75.10;;;;;;5037383;28;21041;-64
2024/02/10 06:02:42;;;;;;;19.67;14.33;;;14.60;74.80;;;;;;5033614;28;20455;-64
2024/02/10 06:05:09;;;;;;;17.60;13.90;;;14.60;74.50;;;;;;5040122;28;20843;-63
2024/02/10 06:07:38;;;;;;;20.20;14.40;;;14.60;74.10;;;;;;5040062;28;21001;-66
2024/02/10 06:10:15;;;;;;;18.27;13.27;;;14.70;73.80;;;;;;5036815;28;20557;-65
2024/02/10 06:12:50;;;;;;;18.40;12.90;;;14.70;73.30;;;;;;5040491;28;20485;-64
2024/02/10 06:15:20;;;;;;;14.03;12.07;;;14.70;73.00;;;;;;5042130;28;20431;-64
2024/02/10 06:17:54;;;;;;;14.00;12.50;;;14.60;72.50;;;;;;5038212;28;20462;-63
2024/02/10 06:20:22;;;;;;;18.97;13.03;;;14.60;72.60;;;;;;5040535;28;20502;-64
2024/02/10 06:22:52;;;;;;;15.30;12.37;;;14.80;72.80;;;;;;5035905;28;20443;-65
2024/02/10 06:25:25;;;;;;;19.77;14.70;;;14.90;72.40;;;;;;5034305;28;20436;-65
2024/02/10 06:28:01;;;;;;;19.33;16.60;;;14.90;72.40;;;;;;5033599;28;20479;-65
2024/02/10 06:30:30;;;;;;;19.83;15.67;;;14.90;72.50;;;;;;5039186;28;20986;-66
2024/02/10 06:32:56;;;;;;;17.97;13.40;;;15.00;71.80;;;;;;5040991;28;20466;-64
2024/02/10 06:35:23;;;;;;;16.10;13.20;;;15.00;70.50;;;;;;5037224;28;20462;-64
2024/02/10 06:37:51;;;;;;;15.33;12.73;;;15.00;70.30;;;;;;5039642;28;20506;-65
2024/02/10 06:40:18;;;;;;;16.70;13.40;;;15.00;70.30;;;;;;5040579;28;20451;-64
2024/02/10 06:42:48;;;;;;;14.63;12.90;;;15.10;70.20;;;;;;5040337;28;20974;-64
2024/02/10 06:45:15;;;;;;;15.00;12.83;;;15.20;70.00;;;;;;5037050;28;20524;-64
2024/02/10 06:47:45;;;;;;;15.37;11.90;;;15.20;69.60;;;;;;5042071;28;20466;-67
2024/02/10 06:50:14;;;;;;;15.20;13.40;;;15.20;69.00;;;;;;5040953;28;20477;-65
2024/02/10 06:52:44;;;;;;;16.87;12.90;;;15.20;68.90;;;;;;5048571;28;20415;-65
2024/02/10 06:55:13;;;;;;;15.90;14.20;;;15.20;69.20;;;;;;5040639;28;20443;-65
2024/02/10 06:57:41;;;;;;;13.03;11.37;;;15.20;69.60;;;;;;5043459;28;20466;-66
2024/02/10 07:00:13;;;;;;;17.37;13.67;;;15.30;70.20;;;;;;5043555;28;20439;-65
2024/02/10 07:02:41;;;;;;;17.90;12.87;;;15.30;69.40;;;;;;5042684;28;20532;-66
2024/02/10 07:05:08;;;;;;;20.27;14.00;;;15.40;69.00;;;;;;5040532;28;20964;-64
2024/02/10 07:07:34;;;;;;;20.33;14.30;;;15.30;68.80;;;;;;5042351;28;20486;-65
2024/02/10 07:09:59;;;;;;;18.93;14.73;;;15.30;68.90;;;;;;5048863;28;20442;-65
2024/02/10 07:12:26;;;;;;;16.53;13.20;;;15.30;69.10;;;;;;5047119;28;20548;-65
2024/02/10 07:14:52;;;;;;;17.50;13.47;;;15.20;69.60;;;;;;5045413;28;20215;-65
2024/02/10 07:17:18;;;;;;;17.03;13.73;;;15.30;69.90;;;;;;5042489;28;20464;-65
2024/02/10 07:19:49;;;;;;;17.93;14.00;;;15.40;70.20;;;;;;5047747;28;20498;-64
2024/02/10 07:22:18;;;;;;;16.50;12.70;;;15.40;69.70;;;;;;5034681;28;20193;-65
2024/02/10 07:24:46;;;;;;;17.77;12.73;;;15.50;69.40;;;;;;5034715;28;20408;-64
2024/02/10 07:27:16;;;;;;;16.17;13.77;;;15.50;69.10;;;;;;5041063;28;20553;-65
2024/02/10 07:29:45;;;;;;;12.83;10.60;;;15.50;68.60;;;;;;5042624;28;20480;-64
2024/02/10 07:32:12;;;;;;;13.37;12.03;;;15.50;68.00;;;;;;5037483;28;20529;-65
2024/02/10 07:34:37;;;;;;;14.10;11.97;;;15.50;67.60;;;;;;5040348;28;20519;-64
2024/02/10 07:37:04;;;;;;;14.77;10.73;;;15.50;67.30;;;;;;5042588;28;20962;-66
2024/02/10 07:39:30;;;;;;;11.90;10.70;;;15.50;67.10;;;;;;5044301;28;20215;-65
2024/02/10 07:41:56;;;;;;;14.10;12.60;;;15.50;67.10;;;;;;5046783;28;20427;-66
2024/02/10 07:44:21;;;;;;;16.50;12.83;;;15.50;67.30;;;;;;5039626;28;20191;-63
2024/02/10 07:46:48;;;;;;;15.10;12.63;;;15.50;67.10;;;;;;5044946;28;20463;-64
2024/02/10 07:49:13;;;;;;;16.13;12.53;;;15.40;67.70;;;;;;5042960;28;20192;-64
2024/02/10 07:51:39;;;;;;;22.50;14.97;;;15.20;68.20;;;;;;5036485;28;20475;-65
2024/02/10 07:54:05;;;;;;;18.60;14.60;;;15.20;69.30;;;;;;5046807;28;20196;-65
2024/02/10 07:56:33;;;;;;;20.73;14.10;;;15.20;69.60;;;;;;5046574;28;20197;-64
2024/02/10 07:59:00;;;;;;;19.90;13.70;;;15.10;69.50;;;;;;5046033;28;20210;-64
2024/02/10 08:01:26;;;;;;;18.87;14.03;;;14.70;70.90;;;;;;5046040;28;20444;-65
2024/02/10 08:03:56;;;;;;;18.50;14.50;;;14.50;72.60;;;;;;5049889;28;20442;-65
2024/02/10 08:06:32;;;;;;;16.97;13.10;;;14.50;73.00;;;;;;5046919;28;20464;-66
2024/02/10 08:09:01;;;;;;;19.87;15.13;;;14.60;73.30;;;;;;5044179;28;20446;-65
2024/02/10 08:11:30;;;;;;;18.93;14.00;;;14.80;72.70;;;;;;5042724;28;20874;-64
2024/02/10 08:13:56;;;;;;;16.67;13.37;;;15.00;72.00;;;;;;5039267;28;20456;-66
2024/02/10 08:16:27;;;;;;;17.20;12.00;;;15.10;71.30;;;;;;5042494;28;20451;-64
2024/02/10 08:18:56;;;;;;;19.93;12.97;;;15.20;70.60;;;;;;5044678;28;20475;-64
2024/02/10 08:21:24;;;;;;;17.10;13.73;;;15.00;71.30;;;;;;5043252;28;20427;-65
2024/02/10 08:23:52;;;;;;;16.47;13.47;;;15.00;72.10;;;;;;5041951;28;20863;-65
2024/02/10 08:26:21;;;;;;;22.47;14.97;;;15.00;71.80;;;;;;5037364;28;20455;-63
2024/02/10 08:28:51;;;;;;;18.77;14.27;;;15.00;71.00;;;;;;5042651;28;20980;-64
2024/02/10 08:31:18;;;;;;;17.17;13.73;;;14.60;73.30;;;;;;5044151;28;20466;-64
2024/02/10 08:33:50;;;;;;;17.40;13.40;;;14.70;73.90;;;;;;5044846;28;20915;-65
2024/02/10 08:36:19;;;;;;;14.20;12.70;;;14.80;73.20;;;;;;5044248;28;20451;-64
2024/02/10 08:38:45;;;;;;;17.20;13.33;;;15.00;72.90;;;;;;5044748;28;20454;-65
2024/02/10 08:41:11;;;;;;;17.27;13.07;;;15.10;72.60;;;;;;5039382;28;20421;-64
2024/02/10 08:43:40;;;;;;;14.43;11.93;;;15.10;71.70;;;;;;5041865;28;20498;-64
2024/02/10 08:46:07;;;;;;;15.23;12.50;;;15.10;72.40;;;;;;5046767;28;20459;-70
2024/02/10 08:48:32;;;;;;;18.90;13.30;;;15.20;72.00;;;;;;5039109;28;20435;-66
2024/02/10 08:50:58;;;;;;;16.43;12.23;;;15.40;71.20;;;;;;5044447;28;20994;-66
2024/02/10 08:53:24;;;;;;;16.07;11.80;;;15.50;70.50;;;;;;5044830;28;20188;-68
2024/02/10 08:55:50;;;;;;;15.63;12.60;;;15.60;69.70;;;;;;5048833;28;20205;-64
2024/02/10 08:58:16;;;;;;;19.07;13.37;;;15.60;70.20;;;;;;5043923;28;20189;-65
2024/02/10 09:00:45;;;;;;;14.93;11.97;;;15.40;70.40;;;;;;5035464;28;20502;-63
2024/02/10 09:03:12;;;;;;;15.20;12.40;;;15.20;71.40;;;;;;5038610;28;20453;-65
2024/02/10 09:05:38;;;;;;;15.40;13.20;;;15.20;71.60;;;;;;5037135;28;20442;-64
2024/02/10 09:08:04;;;;;;;15.20;12.53;;;15.10;72.00;;;;;;5046076;28;21034;-65
2024/02/10 09:10:30;;;;;;;16.83;13.00;;;15.20;71.80;;;;;;5037819;28;20467;-64
2024/02/10 09:12:56;;;;;;;18.33;12.60;;;15.20;71.80;;;;;;5039443;28;20945;-63
2024/02/10 09:15:22;;;;;;;15.73;12.67;;;15.20;72.10;;;;;;5048283;28;20188;-65
2024/02/10 09:17:50;;;;;;;17.20;13.30;;;15.20;72.10;;;;;;5044749;28;20517;-64
2024/02/10 09:20:16;;;;;;;13.90;10.47;;;15.00;71.60;;;;;;5046643;28;20263;-64
2024/02/10 09:22:43;;;;;;;17.27;12.70;;;14.90;73.30;;;;;;5040145;28;20439;-65
2024/02/10 09:25:10;;;;;;;15.03;11.63;;;14.80;73.70;;;;;;5044779;28;20423;-66
2024/02/10 09:27:35;;;;;;;22.30;13.03;;;14.90;73.30;;;;;;5037460;28;20486;-64
2024/02/10 09:30:01;;;;;;;14.63;12.37;;;15.10;72.70;;;;;;5039482;28;20978;-64
2024/02/10 09:32:27;;;;;;;13.30;11.17;;;15.30;71.20;;;;;;5038822;28;20196;-65
2024/02/10 09:34:52;;;;;;;15.10;12.70;;;15.30;71.50;;;;;;5042513;28;20657;-66
2024/02/10 09:37:21;;;;;;;16.67;12.13;;;15.20;70.80;;;;;;5036660;28;20205;-63
2024/02/10 09:39:47;;;;;;;13.63;10.97;;;15.10;71.60;;;;;;5037438;28;20204;-64
2024/02/10 09:42:22;;;;;;;16.10;13.03;;;15.00;72.20;;;;;;5036713;28;20431;-63
2024/02/10 09:44:49;;;;;;;14.83;12.07;;;15.10;72.20;;;;;;5046961;28;20222;-64
2024/02/10 09:47:16;;;;;;;13.77;11.53;;;15.10;71.70;;;;;;5040570;28;20824;-66
2024/02/10 09:49:43;;;;;;;15.27;12.20;;;15.30;71.10;;;;;;5045818;28;20447;-67
2024/02/10 09:52:11;;;;;;;14.80;11.47;;;15.30;71.10;;;;;;5034327;28;20466;-62
2024/02/10 09:54:39;;;;;;;13.50;10.53;;;15.20;70.50;;;;;;5044950;28;20793;-67
2024/02/10 09:57:07;;;;;;;14.70;12.47;;;15.00;71.50;;;;;;5042137;28;20455;-66
2024/02/10 09:59:33;;;;;;;15.87;11.10;;;15.10;72.00;;;;;;5039031;28;20526;-64
2024/02/10 10:01:59;;;;;;;14.20;11.40;;;15.40;71.10;;;;;;5038966;28;20555;-63
2024/02/10 10:04:25;;;;;;;12.57;9.97;;;15.50;70.00;;;;;;5041742;28;20212;-63
2024/02/10 10:06:50;;;;;;;17.07;11.77;;;15.60;69.60;;;;;;5042815;28;21014;-64
2024/02/10 10:09:19;;;;;;;10.97;9.87;;;15.70;69.50;;;;;;5043572;28;20696;-63
2024/02/10 10:11:45;;;;;;;12.80;10.70;;;15.90;69.00;;;;;;5036975;28;20216;-64
2024/02/10 10:14:19;;;;;;;14.27;11.03;;;16.00;68.40;;;;;;5040024;28;20445;-66
2024/02/10 10:16:58;;;;;;;23.47;18.43;;;16.10;68.00;;;;;;5038217;28;20491;-64
2024/02/10 10:19:27;;;;;;;22.07;15.73;;;16.20;67.60;;;;;;5040462;28;20455;-67
2024/02/10 10:21:55;;;;;;;18.40;15.60;;;16.20;67.30;;;;;;5039370;28;20819;-62
2024/02/10 10:24:21;;;;;;;13.57;10.30;;;16.30;67.00;;;;;;5041720;28;20530;-62
2024/02/10 10:26:53;;;;;;;11.67;10.13;;;16.10;66.40;;;;;;5039298;28;20569;-64
2024/02/10 10:29:20;;;;;;;12.13;10.77;;;15.80;67.30;;;;;;5036358;28;20754;-63
2024/02/10 10:31:48;;;;;;;12.83;10.17;;;15.90;67.40;;;;;;5034209;28;20500;-67
2024/02/10 10:34:18;;;;;;;11.83;10.40;;;16.10;67.40;;;;;;5036512;28;20574;-66
2024/02/10 10:36:45;;;;;;;19.47;11.60;;;16.20;67.00;;;;;;5030319;28;20547;-66
2024/02/10 10:39:11;;;;;;;19.80;12.97;;;16.30;66.90;;;;;;5041283;28;20445;-64
2024/02/10 10:41:42;;;;;;;16.07;11.07;;;16.40;66.60;;;;;;5037252;28;20521;-64
2024/02/10 10:44:09;;;;;;;12.50;9.80;;;16.50;66.50;;;;;;5034171;28;20438;-69
2024/02/10 10:46:35;;;;;;;12.83;11.50;;;16.60;66.50;;;;;;5033578;28;20459;-64
2024/02/10 10:49:01;;;;;;;14.30;11.77;;;16.60;66.50;;;;;;5035794;28;20447;-64
2024/02/10 10:51:32;;;;;;;14.83;11.60;;;16.60;66.60;;;;;;5039753;28;20331;-64
2024/02/10 10:54:00;;;;;;;13.97;12.40;;;16.60;66.60;;;;;;5046911;28;20451;-67
2024/02/10 10:56:27;;;;;;;13.10;11.70;;;16.60;66.70;;;;;;5046232;28;20546;-67
2024/02/10 10:59:00;;;;;;;18.50;13.10;;;16.60;66.90;;;;;;5042339;28;20457;-64
2024/02/10 11:01:27;;;;;;;15.23;13.30;;;16.70;66.80;;;;;;5035640;28;20529;-64
2024/02/10 11:03:54;;;;;;;15.87;13.70;;;16.70;66.80;;;;;;5040720;28;20446;-64
2024/02/10 11:06:21;;;;;;;15.00;13.23;;;16.70;66.90;;;;;;5036993;28;20459;-67
2024/02/10 11:08:53;;;;;;;17.23;13.47;;;16.80;67.10;;;;;;5043778;28;20438;-64
2024/02/10 11:11:18;;;;;;;18.10;14.47;;;16.60;67.30;;;;;;5036996;28;20487;-63
2024/02/10 11:13:44;;;;;;;20.80;16.50;;;16.60;67.80;;;;;;5042550;28;20423;-67
2024/02/10 11:16:12;;;;;;;20.37;15.30;;;16.70;67.90;;;;;;5044792;28;20243;-64
2024/02/10 11:18:57;;;;;;;20.40;16.73;;;16.70;68.10;;;;;;5039369;28;20280;-65
2024/02/10 11:21:30;;;;;;;20.90;17.07;;;16.80;68.00;;;;;;5041819;28;20438;-66
2024/02/10 11:24:14;;;;;;;22.97;16.70;;;16.80;67.70;;;;;;5049983;28;20983;-65
2024/02/10 11:26:41;;;;;;;18.43;14.67;;;16.70;67.50;;;;;;5045013;28;20585;-66
2024/02/10 11:29:17;;;;;;;19.50;14.50;;;16.70;67.90;;;;;;5041509;28;20434;-70
2024/02/10 11:31:44;;;;;;;21.73;15.60;;;16.70;67.90;;;;;;5042306;28;20578;-65
2024/02/10 11:34:14;;;;;;;19.43;15.40;;;16.70;67.90;;;;;;5046882;28;20438;-64
2024/02/10 11:36:50;;;;;;;19.80;15.13;;;16.70;68.30;;;;;;5039126;28;20463;-64
2024/02/10 11:39:16;;;;;;;17.20;13.80;;;16.60;68.70;;;;;;5046750;28;20984;-64
2024/02/10 11:41:42;;;;;;;18.00;14.53;;;16.60;69.20;;;;;;5033867;28;20424;-64
2024/02/10 11:44:08;;;;;;;16.37;13.83;;;16.60;69.30;;;;;;5044193;28;20192;-70
2024/02/10 11:46:36;;;;;;;16.37;13.87;;;16.60;69.30;;;;;;5051472;28;20200;-67
2024/02/10 11:49:02;;;;;;;17.87;14.17;;;16.60;69.30;;;;;;5037814;28;20438;-64
2024/02/10 11:51:31;;;;;;;16.00;13.00;;;16.60;69.40;;;;;;5040984;28;20566;-70
2024/02/10 11:53:58;;;;;;;15.70;13.47;;;16.70;69.40;;;;;;5036569;28;20213;-67
2024/02/10 11:56:34;;;;;;;14.03;12.23;;;16.70;69.40;;;;;;5046056;28;20454;-66
2024/02/10 11:59:01;;;;;;;14.10;12.27;;;16.80;69.70;;;;;;5033852;28;20438;-65
2024/02/10 12:01:27;;;;;;;19.17;14.33;;;16.70;68.90;;;;;;5043749;28;20466;-64
2024/02/10 12:03:53;;;;;;;19.53;14.27;;;16.70;69.10;;;;;;5051583;28;20798;-67
2024/02/10 12:06:21;;;;;;;16.33;13.27;;;16.80;69.30;;;;;;5051475;28;20455;-64
2024/02/10 12:08:47;;;;;;;16.73;13.30;;;16.70;69.00;;;;;;5051728;28;20733;-67
2024/02/10 12:11:16;;;;;;;16.07;12.57;;;16.80;68.70;;;;;;5046493;28;20532;-66
2024/02/10 12:13:42;;;;;;;16.60;14.43;;;16.80;68.30;;;;;;5038349;28;20440;-64
2024/02/10 12:16:11;;;;;;;18.80;13.70;;;16.80;68.10;;;;;;5040612;28;21024;-66
2024/02/10 12:18:38;;;;;;;16.83;13.63;;;16.80;68.10;;;;;;5050559;28;20177;-66
2024/02/10 12:21:04;;;;;;;18.83;13.10;;;16.80;68.20;;;;;;5048837;28;20489;-65
2024/02/10 12:23:32;;;;;;;18.90;14.73;;;16.80;68.50;;;;;;5034226;28;20440;-64
2024/02/10 12:26:01;;;;;;;16.70;14.70;;;16.80;68.30;;;;;;5040345;28;20223;-66
2024/02/10 12:28:31;;;;;;;16.60;14.33;;;16.70;68.40;;;;;;5047350;28;20470;-67
2024/02/10 12:30:56;;;;;;;17.77;13.67;;;16.60;68.70;;;;;;5043466;28;20482;-63